createdAt,value
2022-09-28T00:00:19.579Z,99151.88
2022-09-28T00:02:46.296Z,99161.66
2022-09-28T00:05:12.908Z,99160.34
2022-09-28T00:07:39.476Z,99155.19
2022-09-28T00:10:06.091Z,99146.00
2022-09-28T00:12:32.744Z,99143.00
2022-09-28T00:14:59.603Z,99145.59
2022-09-28T00:17:26.759Z,99146.16
2022-09-28T00:19:53.352Z,99139.97
2022-09-28T00:22:19.926Z,99135.06
2022-09-28T00:24:46.741Z,99141.81
2022-09-28T00:27:13.374Z,99136.09
2022-09-28T00:29:40.010Z,99146.44
2022-09-28T00:32:09.529Z,99148.88
2022-09-28T00:34:38.325Z,99145.69
2022-09-28T00:37:05.827Z,99152.91
2022-09-28T00:39:32.440Z,99157.81
2022-09-28T00:41:59.616Z,99153.03
2022-09-28T00:44:26.155Z,99154.34
2022-09-28T00:47:06.283Z,99166.16
2022-09-28T00:49:51.691Z,99163.97
2022-09-28T00:52:21.746Z,99167.22
2022-09-28T00:54:49.282Z,99161.75
2022-09-28T00:57:17.231Z,99158.16
2022-09-28T00:59:43.831Z,99162.53
2022-09-28T01:02:10.719Z,99155.87
2022-09-28T01:04:38.791Z,99150.66
2022-09-28T01:07:06.066Z,99155.91
2022-09-28T01:09:32.711Z,99152.06
2022-09-28T01:11:59.279Z,99152.81
2022-09-28T01:14:25.912Z,99143.69
2022-09-28T01:17:04.522Z,99135.22
2022-09-28T01:19:31.666Z,99140.97
2022-09-28T01:22:17.844Z,99145.38
2022-09-28T01:24:44.760Z,99151.84
2022-09-28T01:27:14.301Z,99143.09
2022-09-28T01:29:46.787Z,99153.03
2022-09-28T01:32:30.016Z,99150.03
2022-09-28T01:35:05.883Z,99146.66
2022-09-28T01:37:37.530Z,99149.13
2022-09-28T01:40:05.180Z,99151.44
2022-09-28T01:42:33.275Z,99151.12
2022-09-28T01:45:04.063Z,99153.28
2022-09-28T01:47:33.507Z,99155.16
2022-09-28T01:50:05.026Z,99158.88
2022-09-28T01:52:42.001Z,99158.69
2022-09-28T01:55:21.303Z,99161.56
2022-09-28T01:57:55.498Z,99163.22
2022-09-28T02:00:24.209Z,99162.84
2022-09-28T02:02:54.034Z,99163.06
2022-09-28T02:05:33.001Z,99153.47
2022-09-28T02:08:09.088Z,99162.72
2022-09-28T02:10:39.169Z,99150.53
2022-09-28T02:13:12.442Z,99144.25
2022-09-28T02:16:03.501Z,99144.75
2022-09-28T02:18:30.265Z,99139.53
2022-09-28T02:21:00.933Z,99145.66
2022-09-28T02:23:29.345Z,99144.19
2022-09-28T02:26:01.090Z,99139.78
2022-09-28T02:28:27.764Z,99142.94
2022-09-28T02:30:55.267Z,99140.84
2022-09-28T02:33:24.747Z,99149.72
2022-09-28T02:35:51.451Z,99141.25
2022-09-28T02:38:18.074Z,99146.00
2022-09-28T02:40:49.621Z,99157.19
2022-09-28T02:43:34.698Z,99153.44
2022-09-28T02:46:10.181Z,99150.44
2022-09-28T02:48:44.242Z,99155.09
2022-09-28T02:51:19.136Z,99151.25
2022-09-28T02:53:53.671Z,99154.97
2022-09-28T02:56:39.188Z,99161.88
2022-09-28T02:59:24.107Z,99165.28
2022-09-28T03:01:56.900Z,99161.19
2022-09-28T03:04:32.667Z,99173.91
2022-09-28T03:07:22.165Z,99178.91
2022-09-28T03:09:51.500Z,99181.53
2022-09-28T03:12:18.905Z,99167.88
2022-09-28T03:14:45.619Z,99174.53
2022-09-28T03:17:12.209Z,99168.53
2022-09-28T03:19:38.837Z,99161.06
2022-09-28T03:22:05.840Z,99160.81
2022-09-28T03:24:32.414Z,99164.09
2022-09-28T03:26:59.076Z,99153.75
2022-09-28T03:29:25.616Z,99154.25
2022-09-28T03:31:52.235Z,99151.78
2022-09-28T03:34:18.955Z,99150.34
2022-09-28T03:36:45.509Z,99145.47
2022-09-28T03:39:12.020Z,99146.38
2022-09-28T03:41:38.576Z,99155.63
2022-09-28T03:44:05.381Z,99151.06
2022-09-28T03:46:31.957Z,99144.56
2022-09-28T03:48:59.412Z,99150.28
2022-09-28T03:51:26.436Z,99143.50
2022-09-28T03:53:53.053Z,99140.37
2022-09-28T03:56:19.641Z,99139.66
2022-09-28T03:58:46.233Z,99150.09
2022-09-28T04:01:17.569Z,99155.06
2022-09-28T04:03:45.007Z,99145.78
2022-09-28T04:06:11.813Z,99144.62
2022-09-28T04:08:38.518Z,99140.25
2022-09-28T04:11:05.140Z,99128.81
2022-09-28T04:13:31.960Z,99128.28
2022-09-28T04:15:59.867Z,99128.28
2022-09-28T04:18:26.605Z,99130.19
2022-09-28T04:21:22.658Z,99128.97
2022-09-28T04:23:49.400Z,99132.47
2022-09-28T04:26:20.655Z,99126.25
2022-09-28T04:29:16.571Z,99121.22
2022-09-28T04:31:45.120Z,99124.25
2022-09-28T04:34:12.701Z,99110.25
2022-09-28T04:36:39.289Z,99110.75
2022-09-28T04:39:05.877Z,99119.97
2022-09-28T04:41:32.521Z,99111.31
2022-09-28T04:43:59.342Z,99110.97
2022-09-28T04:46:26.386Z,99114.34
2022-09-28T04:48:52.999Z,99118.41
2022-09-28T04:51:19.706Z,99119.81
2022-09-28T04:53:46.289Z,99117.91
2022-09-28T04:56:13.670Z,99123.97
2022-09-28T04:58:40.625Z,99115.78
2022-09-28T05:01:09.540Z,99123.78
2022-09-28T05:03:36.211Z,99127.88
2022-09-28T05:06:02.860Z,99132.16
2022-09-28T05:08:29.531Z,99141.06
2022-09-28T05:11:00.145Z,99136.91
2022-09-28T05:13:27.597Z,99134.75
2022-09-28T05:15:58.197Z,99139.72
2022-09-28T05:18:26.428Z,99146.94
2022-09-28T05:20:53.119Z,99137.78
2022-09-28T05:23:19.722Z,99141.47
2022-09-28T05:25:46.314Z,99138.41
2022-09-28T05:28:13.007Z,99130.94
2022-09-28T05:30:39.638Z,99127.69
2022-09-28T05:33:06.238Z,99121.22
2022-09-28T05:35:32.901Z,99118.84
2022-09-28T05:38:05.091Z,99121.53
2022-09-28T05:40:31.998Z,99128.38
2022-09-28T05:42:59.142Z,99116.78
2022-09-28T05:45:25.908Z,99112.34
2022-09-28T05:47:52.489Z,99109.06
2022-09-28T05:50:19.071Z,99123.69
2022-09-28T05:52:46.000Z,99120.62
2022-09-28T05:55:12.790Z,99117.22
2022-09-28T05:57:39.389Z,99121.91
2022-09-28T06:00:08.351Z,99124.00
2022-09-28T06:02:35.618Z,99127.50
2022-09-28T06:05:02.258Z,99119.72
2022-09-28T06:07:30.495Z,99122.31
2022-09-28T06:09:57.967Z,99111.97
2022-09-28T06:12:25.999Z,99113.69
2022-09-28T06:14:52.590Z,99110.00
2022-09-28T06:17:19.152Z,99117.91
2022-09-28T06:19:45.949Z,99108.69
2022-09-28T06:22:12.698Z,99116.53
2022-09-28T06:24:39.309Z,99123.19
2022-09-28T06:27:05.909Z,99116.59
2022-09-28T06:29:32.537Z,99120.94
2022-09-28T06:31:59.199Z,99128.31
2022-09-28T06:34:25.926Z,99121.25
2022-09-28T06:36:55.183Z,99123.31
2022-09-28T06:39:24.476Z,99125.53
2022-09-28T06:41:56.851Z,99119.56
2022-09-28T06:44:27.269Z,99115.66
2022-09-28T06:46:57.652Z,99121.28
2022-09-28T06:49:29.193Z,99109.44
2022-09-28T06:51:58.871Z,99120.81
2022-09-28T06:54:27.098Z,99110.94
2022-09-28T06:56:53.797Z,99101.16
2022-09-28T06:59:20.639Z,99097.97
2022-09-28T07:01:47.367Z,99099.00
2022-09-28T07:04:14.005Z,99094.84
2022-09-28T07:06:40.905Z,99101.09
2022-09-28T07:09:26.397Z,99102.19
2022-09-28T07:11:54.358Z,99103.66
2022-09-28T07:14:40.718Z,99106.03
2022-09-28T07:17:13.616Z,99110.31
2022-09-28T07:19:40.947Z,99100.66
2022-09-28T07:22:07.777Z,99109.41
2022-09-28T07:24:34.602Z,99107.50
2022-09-28T07:27:02.048Z,99112.41
2022-09-28T07:29:28.805Z,99101.50
2022-09-28T07:31:55.424Z,99097.69
2022-09-28T07:34:23.699Z,99103.47
2022-09-28T07:36:50.467Z,99099.34
2022-09-28T07:39:17.120Z,99088.41
2022-09-28T07:41:44.501Z,99088.00
2022-09-28T07:44:11.299Z,99086.44
2022-09-28T07:46:38.069Z,99088.81
2022-09-28T07:49:11.375Z,99087.50
2022-09-28T07:51:39.001Z,99085.69
2022-09-28T07:54:06.676Z,99093.59
2022-09-28T07:56:35.000Z,99095.88
2022-09-28T07:59:01.705Z,99098.38
2022-09-28T08:01:30.728Z,99096.78
2022-09-28T08:03:57.367Z,99087.59
2022-09-28T08:06:23.989Z,99089.31
2022-09-28T08:08:53.008Z,99102.59
2022-09-28T08:11:19.611Z,99093.97
2022-09-28T08:13:46.690Z,99087.81
2022-09-28T08:16:13.726Z,99093.81
2022-09-28T08:18:40.822Z,99094.28
2022-09-28T08:21:26.056Z,99095.94
2022-09-28T08:23:53.575Z,99099.72
2022-09-28T08:26:20.335Z,99091.34
2022-09-28T08:28:47.967Z,99087.37
2022-09-28T08:31:14.764Z,99084.84
2022-09-28T08:33:42.281Z,99080.31
2022-09-28T08:36:09.572Z,99083.97
2022-09-28T08:38:36.406Z,99089.34
2022-09-28T08:41:06.001Z,99084.97
2022-09-28T08:43:48.454Z,99082.97
2022-09-28T08:46:17.141Z,99081.31
2022-09-28T08:49:26.190Z,99089.16
2022-09-28T08:52:12.081Z,99080.91
2022-09-28T08:54:42.715Z,99082.75
2022-09-28T08:57:12.036Z,99079.31
2022-09-28T08:59:41.693Z,99079.31
2022-09-28T09:02:13.521Z,99067.88
2022-09-28T09:04:41.767Z,99067.00
2022-09-28T09:07:22.477Z,99068.53
2022-09-28T09:09:56.647Z,99069.06
2022-09-28T09:12:40.016Z,99062.91
2022-09-28T09:15:22.383Z,99057.69
2022-09-28T09:17:49.258Z,99058.84
2022-09-28T09:20:25.343Z,99063.03
2022-09-28T09:22:58.283Z,99059.84
2022-09-28T09:25:44.193Z,99056.41
2022-09-28T09:28:20.071Z,99052.38
2022-09-28T09:30:56.319Z,99055.81
2022-09-28T09:33:37.220Z,99049.44
2022-09-28T09:36:30.477Z,99055.00
2022-09-28T09:39:21.469Z,99048.34
2022-09-28T09:42:00.637Z,99050.25
2022-09-28T09:44:38.884Z,99046.59
2022-09-28T09:47:11.469Z,99044.84
2022-09-28T09:49:41.283Z,99051.50
2022-09-28T09:52:26.768Z,99042.91
2022-09-28T09:54:53.466Z,99045.69
2022-09-28T09:57:40.173Z,99049.81
2022-09-28T10:00:14.633Z,99052.06
2022-09-28T10:02:43.281Z,99034.53
2022-09-28T10:05:14.015Z,99034.06
2022-09-28T10:07:47.890Z,99030.34
2022-09-28T10:10:18.297Z,99031.03
2022-09-28T10:12:45.417Z,99029.03
2022-09-28T10:15:15.646Z,99029.66
2022-09-28T10:17:42.516Z,99039.06
2022-09-28T10:20:13.453Z,99033.06
2022-09-28T10:22:40.289Z,99029.91
2022-09-28T10:25:09.289Z,99025.25
2022-09-28T10:27:37.145Z,99024.84
2022-09-28T10:30:04.065Z,99021.34
2022-09-28T10:32:40.999Z,99018.47
2022-09-28T10:35:17.239Z,99022.00
2022-09-28T10:38:04.729Z,99011.53
2022-09-28T10:40:46.311Z,99014.41
2022-09-28T10:43:15.657Z,99002.69
2022-09-28T10:45:42.494Z,99003.72
2022-09-28T10:48:21.100Z,98995.25
2022-09-28T10:51:05.271Z,98999.56
2022-09-28T10:53:32.310Z,98988.78
2022-09-28T10:56:03.764Z,98979.81
2022-09-28T10:58:35.231Z,98999.97
2022-09-28T11:01:03.895Z,98977.53
2022-09-28T11:03:31.087Z,98971.34
2022-09-28T11:06:05.805Z,98975.34
2022-09-28T11:08:42.134Z,98965.94
2022-09-28T11:11:13.287Z,98959.03
2022-09-28T11:13:50.395Z,98950.50
2022-09-28T11:16:25.216Z,98950.75
2022-09-28T11:18:52.366Z,98945.44
2022-09-28T11:21:22.450Z,98957.47
2022-09-28T11:23:58.611Z,98948.69
2022-09-28T11:26:25.319Z,98947.81
2022-09-28T11:28:53.122Z,98947.91
2022-09-28T11:31:29.651Z,98940.66
2022-09-28T11:34:07.385Z,98944.50
2022-09-28T11:36:52.698Z,98933.53
2022-09-28T11:39:25.468Z,98926.94
2022-09-28T11:42:04.512Z,98920.44
2022-09-28T11:44:39.341Z,98924.84
2022-09-28T11:47:25.054Z,98910.97
2022-09-28T11:50:00.637Z,98906.16
2022-09-28T11:52:40.126Z,98908.38
2022-09-28T11:55:12.821Z,98914.22
2022-09-28T11:57:42.585Z,98904.47
2022-09-28T12:00:15.119Z,98905.06
2022-09-28T12:02:41.855Z,98904.03
2022-09-28T12:05:20.946Z,98908.59
2022-09-28T12:07:50.890Z,98918.53
2022-09-28T12:10:27.306Z,98924.56
2022-09-28T12:13:01.303Z,98917.25
2022-09-28T12:15:42.185Z,98918.63
2022-09-28T12:18:36.825Z,98914.38
2022-09-28T12:21:06.467Z,98925.78
2022-09-28T12:23:37.470Z,98919.50
2022-09-28T12:26:06.310Z,98914.47
2022-09-28T12:28:33.076Z,98915.38
2022-09-28T12:31:05.868Z,98910.78
2022-09-28T12:33:32.574Z,98897.13
2022-09-28T12:36:17.858Z,98890.53
2022-09-28T12:39:15.115Z,98895.72
2022-09-28T12:41:48.815Z,98884.91
2022-09-28T12:44:18.562Z,98869.31
2022-09-28T12:46:50.882Z,98862.47
2022-09-28T12:50:33.389Z,98866.69
2022-09-28T12:52:33.577Z,98869.50
2022-09-28T12:55:16.003Z,98867.03
2022-09-28T12:57:45.537Z,98859.69
2022-09-28T13:00:16.245Z,98859.56
2022-09-28T13:02:54.527Z,98861.44
2022-09-28T13:05:34.633Z,98850.94
2022-09-28T13:08:20.013Z,98834.63
2022-09-28T13:10:55.777Z,98836.94
2022-09-28T13:13:26.199Z,98846.97
2022-09-28T13:15:56.915Z,98845.31
2022-09-28T13:18:29.742Z,98855.47
2022-09-28T13:20:56.759Z,98850.66
2022-09-28T13:23:26.302Z,98847.75
2022-09-28T13:25:57.132Z,98853.09
2022-09-28T13:28:27.181Z,98852.91
2022-09-28T13:30:55.385Z,98848.84
2022-09-28T13:33:30.397Z,98842.19
2022-09-28T13:35:57.269Z,98848.25
2022-09-28T13:38:24.159Z,98842.09
2022-09-28T13:41:06.424Z,98841.41
2022-09-28T13:43:33.109Z,98833.00
2022-09-28T13:46:06.432Z,98837.06
2022-09-28T13:48:45.261Z,98838.78
2022-09-28T13:51:23.873Z,98836.91
2022-09-28T13:53:51.224Z,98839.81
2022-09-28T13:56:21.252Z,98829.44
2022-09-28T13:58:51.670Z,98825.50
2022-09-28T14:01:20.996Z,98820.47
2022-09-28T14:03:56.502Z,98825.41
2022-09-28T14:06:27.721Z,98813.19
2022-09-28T14:09:13.065Z,98827.56
2022-09-28T14:11:56.750Z,98820.91
2022-09-28T14:14:31.370Z,98822.75
2022-09-28T14:17:18.313Z,98819.13
2022-09-28T14:19:46.148Z,98819.50
2022-09-28T14:22:19.003Z,98816.00
2022-09-28T14:24:55.800Z,98824.00
2022-09-28T14:27:25.322Z,98819.37
2022-09-28T14:30:06.579Z,98826.41
2022-09-28T14:32:36.304Z,98815.69
2022-09-28T14:35:07.761Z,98816.44
2022-09-28T14:37:54.533Z,98810.19
2022-09-28T14:40:45.843Z,98813.88
2022-09-28T14:43:25.011Z,98809.06
2022-09-28T14:46:11.722Z,98807.44
2022-09-28T14:48:48.181Z,98804.03
2022-09-28T14:51:27.062Z,98807.78
2022-09-28T14:53:55.113Z,98808.41
2022-09-28T14:56:22.217Z,98809.09
2022-09-28T14:58:53.424Z,98808.91
2022-09-28T15:01:21.133Z,98808.81
2022-09-28T15:03:50.871Z,98810.97
2022-09-28T15:06:19.863Z,98810.72
2022-09-28T15:08:46.557Z,98802.16
2022-09-28T15:11:15.915Z,98801.41
2022-09-28T15:13:43.023Z,98805.47
2022-09-28T15:16:14.163Z,98806.97
2022-09-28T15:18:44.310Z,98813.41
2022-09-28T15:21:11.602Z,98815.38
2022-09-28T15:23:44.003Z,98811.94
2022-09-28T15:26:29.198Z,98816.56
2022-09-28T15:28:56.000Z,98815.16
2022-09-28T15:31:24.727Z,98814.31
2022-09-28T15:34:10.146Z,98810.19
2022-09-28T15:36:39.206Z,98806.81
2022-09-28T15:39:05.867Z,98806.88
2022-09-28T15:41:34.020Z,98811.44
2022-09-28T15:44:12.885Z,98816.53
2022-09-28T15:46:41.350Z,98816.75
2022-09-28T15:49:20.181Z,98820.56
2022-09-28T15:51:52.906Z,98817.13
2022-09-28T15:54:27.777Z,98820.63
2022-09-28T15:57:00.267Z,98815.22
2022-09-28T15:59:38.266Z,98814.75
2022-09-28T16:02:18.368Z,98823.19
2022-09-28T16:04:48.233Z,98820.75
2022-09-28T16:07:17.710Z,98824.97
2022-09-28T16:10:01.103Z,98823.75
2022-09-28T16:12:31.968Z,98826.66
2022-09-28T16:15:04.140Z,98834.78
2022-09-28T16:17:35.361Z,98827.56
2022-09-28T16:20:25.769Z,98833.41
2022-09-28T16:22:53.632Z,98837.34
2022-09-28T16:25:25.307Z,98835.53
2022-09-28T16:27:53.082Z,98828.16
2022-09-28T16:30:24.397Z,98838.84
2022-09-28T16:33:06.047Z,98834.59
2022-09-28T16:35:35.792Z,98837.22
2022-09-28T16:38:11.654Z,98837.34
2022-09-28T16:40:39.369Z,98839.69
2022-09-28T16:43:08.392Z,98832.66
2022-09-28T16:45:37.773Z,98833.50
2022-09-28T16:48:04.590Z,98838.84
2022-09-28T16:50:32.568Z,98846.78
2022-09-28T16:53:19.159Z,98845.78
2022-09-28T16:55:47.164Z,98840.13
2022-09-28T16:58:13.784Z,98845.50
2022-09-28T17:00:43.611Z,98839.53
2022-09-28T17:03:13.267Z,98840.97
2022-09-28T17:05:40.356Z,98841.09
2022-09-28T17:08:07.156Z,98848.97
2022-09-28T17:10:56.175Z,98841.59
2022-09-28T17:13:31.773Z,98848.41
2022-09-28T17:15:58.915Z,98849.16
2022-09-28T17:18:25.705Z,98849.63
2022-09-28T17:20:55.125Z,98847.19
2022-09-28T17:23:21.826Z,98850.16
2022-09-28T17:25:48.618Z,98848.53
2022-09-28T17:28:20.728Z,98851.41
2022-09-28T17:30:47.586Z,98857.91
2022-09-28T17:33:14.692Z,98852.72
2022-09-28T17:35:42.291Z,98843.06
2022-09-28T17:38:13.154Z,98842.84
2022-09-28T17:40:41.166Z,98844.25
2022-09-28T17:43:08.516Z,98836.47
2022-09-28T17:45:39.608Z,98841.69
2022-09-28T17:48:16.915Z,98837.78
2022-09-28T17:50:46.535Z,98837.22
2022-09-28T17:53:14.075Z,98839.22
2022-09-28T17:55:43.608Z,98834.59
2022-09-28T17:58:18.325Z,98847.72
2022-09-28T18:00:48.819Z,98850.81
2022-09-28T18:03:20.163Z,98847.66
2022-09-28T18:05:51.732Z,98848.09
2022-09-28T18:08:19.422Z,98855.28
2022-09-28T18:10:52.265Z,98856.56
2022-09-28T18:13:19.033Z,98862.19
2022-09-28T18:15:46.031Z,98857.28
2022-09-28T18:18:13.296Z,98860.16
2022-09-28T18:20:43.540Z,98859.00
2022-09-28T18:23:10.472Z,98860.69
2022-09-28T18:25:40.955Z,98862.41
2022-09-28T18:28:08.337Z,98857.63
2022-09-28T18:30:38.330Z,98857.87
2022-09-28T18:33:06.080Z,98862.69
2022-09-28T18:35:32.826Z,98855.66
2022-09-28T18:37:59.538Z,98861.75
2022-09-28T18:40:26.673Z,98860.53
2022-09-28T18:42:54.483Z,98854.72
2022-09-28T18:45:21.452Z,98857.37
2022-09-28T18:47:48.201Z,98858.31
2022-09-28T18:50:18.660Z,98855.28
2022-09-28T18:52:45.379Z,98861.47
2022-09-28T18:55:12.423Z,98860.19
2022-09-28T18:57:41.392Z,98859.53
2022-09-28T19:00:09.970Z,98858.09
2022-09-28T19:02:36.891Z,98863.38
2022-09-28T19:05:06.048Z,98859.44
2022-09-28T19:07:33.536Z,98866.94
2022-09-28T19:10:00.429Z,98871.19
2022-09-28T19:12:27.309Z,98868.09
2022-09-28T19:14:54.029Z,98862.09
2022-09-28T19:17:20.961Z,98858.88
2022-09-28T19:19:47.587Z,98865.63
2022-09-28T19:22:14.573Z,98862.28
2022-09-28T19:24:43.706Z,98871.97
2022-09-28T19:27:10.695Z,98863.81
2022-09-28T19:29:37.518Z,98867.31
2022-09-28T19:32:04.199Z,98863.59
2022-09-28T19:34:30.844Z,98853.38
2022-09-28T19:36:57.629Z,98852.75
2022-09-28T19:39:24.527Z,98850.50
2022-09-28T19:41:54.434Z,98850.13
2022-09-28T19:44:25.555Z,98855.81
2022-09-28T19:47:13.378Z,98852.63
2022-09-28T19:49:40.837Z,98856.50
2022-09-28T19:52:17.282Z,98851.06
2022-09-28T19:54:45.706Z,98852.66
2022-09-28T19:57:15.003Z,98849.97
2022-09-28T19:59:41.738Z,98848.53
2022-09-28T20:02:10.640Z,98849.19
2022-09-28T20:04:37.327Z,98850.59
2022-09-28T20:07:04.600Z,98850.41
2022-09-28T20:09:31.833Z,98850.13
2022-09-28T20:11:58.565Z,98844.34
2022-09-28T20:14:26.027Z,98846.19
2022-09-28T20:16:54.840Z,98839.47
2022-09-28T20:19:23.173Z,98836.19
2022-09-28T20:21:50.396Z,98835.13
2022-09-28T20:24:17.892Z,98827.44
2022-09-28T20:26:46.036Z,98835.59
2022-09-28T20:29:13.067Z,98844.63
2022-09-28T20:31:39.795Z,98838.16
2022-09-28T20:34:06.401Z,98846.31
2022-09-28T20:36:33.108Z,98848.97
2022-09-28T20:39:03.119Z,98845.16
2022-09-28T20:41:34.941Z,98840.00
2022-09-28T20:44:15.060Z,98839.50
2022-09-28T20:46:43.875Z,98838.91
2022-09-28T20:49:10.613Z,98841.63
2022-09-28T20:51:37.143Z,98838.69
2022-09-28T20:54:03.669Z,98836.63
2022-09-28T20:56:40.121Z,98837.22
2022-09-28T20:59:10.849Z,98841.28
2022-09-28T21:01:37.702Z,98847.34
2022-09-28T21:04:05.311Z,98847.38
2022-09-28T21:06:33.431Z,98849.16
2022-09-28T21:09:00.332Z,98844.91
2022-09-28T21:11:28.396Z,98841.41
2022-09-28T21:13:56.175Z,98834.28
2022-09-28T21:16:22.735Z,98832.47
2022-09-28T21:18:49.291Z,98843.28
2022-09-28T21:21:18.103Z,98852.41
2022-09-28T21:23:45.104Z,98844.59
2022-09-28T21:26:13.058Z,98840.31
2022-09-28T21:28:40.344Z,98840.06
2022-09-28T21:31:07.905Z,98841.19
2022-09-28T21:33:34.521Z,98831.75
2022-09-28T21:36:05.035Z,98832.88
2022-09-28T21:38:31.709Z,98829.13
2022-09-28T21:40:59.310Z,98844.31
2022-09-28T21:43:26.940Z,98834.94
2022-09-28T21:45:54.613Z,98840.06
2022-09-28T21:48:21.748Z,98835.56
2022-09-28T21:51:14.653Z,98830.47
2022-09-28T21:53:41.516Z,98827.44
2022-09-28T21:56:09.872Z,98832.88
2022-09-28T21:58:36.613Z,98847.56
2022-09-28T22:01:05.051Z,98847.09
2022-09-28T22:03:32.552Z,98850.50
2022-09-28T22:05:59.519Z,98853.16
2022-09-28T22:08:26.666Z,98845.31
2022-09-28T22:11:09.975Z,98844.16
2022-09-28T22:13:40.773Z,98840.44
2022-09-28T22:16:07.759Z,98847.19
2022-09-28T22:18:34.765Z,98854.22
2022-09-28T22:21:06.709Z,98847.72
2022-09-28T22:23:33.972Z,98851.19
2022-09-28T22:26:01.894Z,98856.13
2022-09-28T22:28:28.948Z,98851.81
2022-09-28T22:30:55.978Z,98864.75
2022-09-28T22:33:22.954Z,98862.38
2022-09-28T22:35:51.412Z,98867.69
2022-09-28T22:38:19.082Z,98867.97
2022-09-28T22:40:59.288Z,98880.16
2022-09-28T22:43:26.527Z,98883.47
2022-09-28T22:46:03.435Z,98885.75
2022-09-28T22:48:30.143Z,98889.31
2022-09-28T22:50:56.860Z,98904.16
2022-09-28T22:53:23.467Z,98901.28
2022-09-28T22:55:50.105Z,98895.03
2022-09-28T22:58:16.715Z,98899.66
2022-09-28T23:00:43.444Z,98898.31
2022-09-28T23:03:10.144Z,98905.22
2022-09-28T23:05:36.808Z,98901.25
2022-09-28T23:08:03.611Z,98902.53
2022-09-28T23:10:30.199Z,98902.59
2022-09-28T23:12:57.078Z,98894.75
2022-09-28T23:15:24.697Z,98888.00
2022-09-28T23:17:52.419Z,98896.00
2022-09-28T23:20:19.570Z,98879.66
2022-09-28T23:22:47.782Z,98885.72
2022-09-28T23:25:15.427Z,98892.78
2022-09-28T23:27:45.875Z,98891.84
2022-09-28T23:30:12.706Z,98889.25
2022-09-28T23:32:39.267Z,98889.75
2022-09-28T23:35:06.206Z,98894.41
2022-09-28T23:37:32.762Z,98899.72
2022-09-28T23:39:59.353Z,98896.34
2022-09-28T23:42:25.930Z,98888.87
2022-09-28T23:44:52.478Z,98894.41
2022-09-28T23:47:19.165Z,98895.25
2022-09-28T23:49:45.896Z,98891.16
2022-09-28T23:52:12.538Z,98892.84
2022-09-28T23:54:39.566Z,98893.16
2022-09-28T23:57:06.209Z,98894.06
2022-09-28T23:59:33.081Z,98892.84
